KASE/ASE METAR and TAF weather

Enter ICAO airport designator
Station Type Date Time Source
KASE METAR 2019/09/20 09:53 UTC NOAA

KASE 200953Z AUTO 16007KT 10SM BKN080 OVC090 12/03 A3004 RMK AO2 SLP046 T01220028 $


Station Type Date Time Source
KASE Decoded METAR 2019/09/20 09:53 UTC NOAA

ASPEN-PITKIN COUNTY AIRPORT, CO, United States (KASE) 39-14N 106-52W 2354M
Sep 20, 2019 - 05:53 AM EDT / 2019.09.20 0953 UTC
Wind: from the SSE (160 degrees) at 8 MPH (7 KT):0
Visibility: 10 mile(s):0
Sky conditions: overcast
Temperature: 54.0 F (12.2 C)
Dew Point: 37.0 F (2.8 C)
Relative Humidity: 52%
Pressure (altimeter): 30.04 in. Hg (1017 hPa)
ob: KASE 200953Z AUTO 16007KT 10SM BKN080 OVC090 12/03 A3004 RMK AO2 SLP046 T01220028
cycle: 10

Station Type Date Time Source
KASE TAF 2019/09/20 06:22 UTC NOAA

TAF KASE 200520Z 2006/2106 16008KT P6SM SKC
FM201700 19015G25KT P6SM BKN100
FM202000 22020G32KT P6SM FEW090 SCT100
FM202300 24015G30KT P6SM VCSH FEW090 SCT100
FM210200 24015KT P6SM FEW250

Example: see airport list